Time;durP1;ratioP1;P1;durP2;ratioP2;P2;SDS_P1;SDS_P2;PMS_P1;PMS_P2;Temp;Humidity;BMP_temperature;BMP_pressure;BME280_temperature;BME280_humidity;BME280_pressure;Samples;Min_cycle;Max_cycle;Signal;HPM_P1;HPM_P2
2023/03/18 00:00:19;;;;;;;21.55;8.98;;;;;;;;;;6197643;23;20020;-94
2023/03/18 00:02:47;;;;;;;16.15;8.70;;;;;;;;;;6223048;23;20016;-93
2023/03/18 00:05:17;;;;;;;16.52;9.05;;;;;;;;;;6196442;23;20009;-93
2023/03/18 00:07:44;;;;;;;20.13;9.13;;;;;;;;;;6199331;23;20023;-94
2023/03/18 00:10:12;;;;;;;19.05;8.45;;;;;;;;;;6223142;23;20008;-93
2023/03/18 00:12:39;;;;;;;22.95;9.02;;;;;;;;;;6225216;23;20050;-93
2023/03/18 00:15:06;;;;;;;17.52;8.90;;;;;;;;;;6223618;23;20012;-93
2023/03/18 00:17:32;;;;;;;25.10;8.95;;;;;;;;;;6224179;23;20705;-93
2023/03/18 00:20:04;;;;;;;18.25;9.52;;;;;;;;;;6200149;23;20016;-92
2023/03/18 00:22:30;;;;;;;20.05;8.50;;;;;;;;;;6200658;23;20095;-94
2023/03/18 00:24:57;;;;;;;21.33;9.93;;;;;;;;;;6199315;23;20074;-93
2023/03/18 00:27:23;;;;;;;20.77;9.70;;;;;;;;;;6200807;22;20693;-93
2023/03/18 00:29:51;;;;;;;22.90;8.70;;;;;;;;;;6199463;23;20019;-92
2023/03/18 00:32:17;;;;;;;14.15;8.30;;;;;;;;;;6223035;23;20039;-92
2023/03/18 00:34:44;;;;;;;22.05;9.30;;;;;;;;;;6200035;23;20019;-93
2023/03/18 00:37:17;;;;;;;18.75;8.98;;;;;;;;;;6198894;23;20008;-93
2023/03/18 00:39:45;;;;;;;17.88;8.65;;;;;;;;;;6200524;23;20059;-93
2023/03/18 00:42:12;;;;;;;16.15;8.75;;;;;;;;;;6223245;23;20004;-93
2023/03/18 00:44:38;;;;;;;20.45;9.00;;;;;;;;;;6198883;23;20019;-94
2023/03/18 00:47:05;;;;;;;14.30;7.95;;;;;;;;;;6223321;23;20008;-94
2023/03/18 00:49:32;;;;;;;18.88;9.30;;;;;;;;;;6222848;23;20438;-93
2023/03/18 00:51:59;;;;;;;17.48;8.98;;;;;;;;;;6224462;23;20108;-93
2023/03/18 00:54:25;;;;;;;16.20;9.35;;;;;;;;;;6198202;23;20016;-92
2023/03/18 00:56:52;;;;;;;15.57;8.77;;;;;;;;;;6198421;23;20015;-92
2023/03/18 00:59:19;;;;;;;21.73;9.15;;;;;;;;;;6196440;22;20012;-93
2023/03/18 01:01:45;;;;;;;18.55;9.07;;;;;;;;;;6222720;23;20000;-93
2023/03/18 01:04:11;;;;;;;18.63;8.73;;;;;;;;;;6223387;23;20062;-94
2023/03/18 01:06:37;;;;;;;19.92;9.32;;;;;;;;;;6198066;23;20012;-93
2023/03/18 01:09:04;;;;;;;24.67;10.27;;;;;;;;;;6199143;23;20070;-92
2023/03/18 01:11:30;;;;;;;20.42;9.73;;;;;;;;;;6250385;23;20154;-93
2023/03/18 01:13:58;;;;;;;18.95;10.70;;;;;;;;;;6222557;23;20036;-92
2023/03/18 01:16:25;;;;;;;17.98;9.77;;;;;;;;;;6198373;23;20055;-93
2023/03/18 01:18:52;;;;;;;21.38;10.05;;;;;;;;;;6224677;23;20754;-93
2023/03/18 01:21:18;;;;;;;21.63;10.60;;;;;;;;;;6223865;23;20035;-92
2023/03/18 01:23:48;;;;;;;19.98;11.00;;;;;;;;;;6224758;23;20038;-92
2023/03/18 01:26:16;;;;;;;19.95;10.15;;;;;;;;;;6202044;22;20435;-93
2023/03/18 01:28:42;;;;;;;22.55;10.70;;;;;;;;;;6198985;23;20008;-92
2023/03/18 01:31:08;;;;;;;24.42;11.48;;;;;;;;;;6199807;23;20353;-90
2023/03/18 01:33:34;;;;;;;21.92;11.45;;;;;;;;;;6224030;23;20038;-92
2023/03/18 01:36:03;;;;;;;27.90;12.70;;;;;;;;;;6198511;23;20015;-92
2023/03/18 01:38:31;;;;;;;20.73;11.70;;;;;;;;;;6198842;23;20012;-93
2023/03/18 01:40:58;;;;;;;31.85;13.55;;;;;;;;;;6198361;23;20020;-92
2023/03/18 01:43:26;;;;;;;31.45;14.27;;;;;;;;;;6221979;23;20012;-92
2023/03/18 01:45:57;;;;;;;29.60;13.10;;;;;;;;;;6223134;23;20008;-92
2023/03/18 01:48:25;;;;;;;27.55;12.48;;;;;;;;;;6222708;23;20088;-93
2023/03/18 01:50:58;;;;;;;28.65;14.25;;;;;;;;;;6222702;23;20047;-92
2023/03/18 01:53:25;;;;;;;33.28;14.93;;;;;;;;;;6221980;23;20011;-92
2023/03/18 01:55:52;;;;;;;31.58;14.45;;;;;;;;;;6221906;23;20009;-92
2023/03/18 01:58:20;;;;;;;28.25;14.77;;;;;;;;;;6222956;23;20015;-91
2023/03/18 02:00:50;;;;;;;37.47;15.65;;;;;;;;;;6221449;23;20004;-92
2023/03/18 02:03:17;;;;;;;30.70;15.70;;;;;;;;;;6221117;23;20042;-92
2023/03/18 02:05:44;;;;;;;36.00;16.67;;;;;;;;;;6197573;23;20008;-92
2023/03/18 02:08:10;;;;;;;31.83;16.27;;;;;;;;;;6222553;23;20000;-91
2023/03/18 02:10:37;;;;;;;37.47;19.65;;;;;;;;;;6221125;23;20004;-91
2023/03/18 02:13:09;;;;;;;27.80;14.75;;;;;;;;;;6223449;23;20008;-92
2023/03/18 02:15:39;;;;;;;35.28;17.08;;;;;;;;;;6222755;23;20378;-91
2023/03/18 02:18:12;;;;;;;35.42;17.58;;;;;;;;;;6222847;23;20015;-90
2023/03/18 02:20:50;;;;;;;32.25;16.38;;;;;;;;;;6222728;23;20020;-93
2023/03/18 02:23:28;;;;;;;41.15;18.63;;;;;;;;;;6219370;23;20074;-93
2023/03/18 02:25:57;;;;;;;29.83;16.48;;;;;;;;;;6223700;22;20004;-93
2023/03/18 02:28:28;;;;;;;39.65;18.45;;;;;;;;;;6195853;23;20046;-92
2023/03/18 02:30:57;;;;;;;34.63;18.50;;;;;;;;;;6195645;23;20016;-94
2023/03/18 02:33:26;;;;;;;41.38;19.02;;;;;;;;;;6196356;23;20032;-93
2023/03/18 02:35:56;;;;;;;43.53;20.35;;;;;;;;;;6194463;23;20004;-94
2023/03/18 02:38:22;;;;;;;35.95;19.30;;;;;;;;;;6222203;23;20015;-94
2023/03/18 02:40:49;;;;;;;34.88;20.05;;;;;;;;;;6195456;23;20062;-93
2023/03/18 02:43:26;;;;;;;40.65;19.73;;;;;;;;;;6191204;23;20005;-93
2023/03/18 02:45:52;;;;;;;39.17;20.98;;;;;;;;;;6192850;23;20059;-91
2023/03/18 02:48:20;;;;;;;41.45;20.77;;;;;;;;;;6194072;23;20000;-92
2023/03/18 02:50:47;;;;;;;41.22;21.80;;;;;;;;;;6192500;23;20031;-92
2023/03/18 02:53:15;;;;;;;38.97;20.50;;;;;;;;;;6192475;23;20012;-92
2023/03/18 02:55:41;;;;;;;42.08;22.08;;;;;;;;;;6192048;23;20027;-92
2023/03/18 02:58:16;;;;;;;50.13;22.55;;;;;;;;;;6192832;23;20009;-93
2023/03/18 03:00:42;;;;;;;35.78;21.55;;;;;;;;;;6192498;23;20009;-92
2023/03/18 03:03:09;;;;;;;43.33;22.70;;;;;;;;;;6192472;23;20015;-92
2023/03/18 03:05:35;;;;;;;50.25;21.65;;;;;;;;;;6192760;23;20004;-91
2023/03/18 03:08:02;;;;;;;44.28;23.13;;;;;;;;;;6190357;23;20059;-92
2023/03/18 03:10:29;;;;;;;44.05;23.35;;;;;;;;;;6192781;23;20015;-92
2023/03/18 03:12:56;;;;;;;54.38;22.85;;;;;;;;;;6192362;23;20063;-93
2023/03/18 03:15:23;;;;;;;49.55;24.63;;;;;;;;;;6190313;23;20056;-95
2023/03/18 03:17:50;;;;;;;46.05;23.48;;;;;;;;;;6190915;23;20032;-95
2023/03/18 03:20:17;;;;;;;51.08;24.27;;;;;;;;;;6190678;23;20017;-95
2023/03/18 03:22:43;;;;;;;45.60;24.55;;;;;;;;;;6192303;23;20246;-95
2023/03/18 03:25:13;;;;;;;48.58;23.83;;;;;;;;;;6191517;23;20035;-94
2023/03/18 03:27:42;;;;;;;44.38;24.27;;;;;;;;;;6212720;22;20100;-95
2023/03/18 03:30:10;;;;;;;48.75;23.33;;;;;;;;;;6219606;23;20008;-95
2023/03/18 03:32:36;;;;;;;52.85;24.40;;;;;;;;;;6218697;23;20069;-94
2023/03/18 03:35:04;;;;;;;51.78;25.15;;;;;;;;;;6220074;23;20008;-94
2023/03/18 03:37:30;;;;;;;51.38;26.70;;;;;;;;;;6221798;23;20329;-94
2023/03/18 03:39:56;;;;;;;56.08;25.95;;;;;;;;;;6220864;23;20014;-95
2023/03/18 03:42:23;;;;;;;46.53;26.33;;;;;;;;;;6196685;23;20226;-94
2023/03/18 03:44:49;;;;;;;49.10;24.58;;;;;;;;;;6195157;23;20008;-94
2023/03/18 03:47:15;;;;;;;56.80;26.02;;;;;;;;;;6195996;23;20008;-93
2023/03/18 03:49:42;;;;;;;48.53;25.38;;;;;;;;;;6195936;23;20087;-94
2023/03/18 03:52:08;;;;;;;47.80;24.75;;;;;;;;;;6195258;23;20458;-96
2023/03/18 03:54:34;;;;;;;51.03;24.58;;;;;;;;;;6219735;23;20087;-93
2023/03/18 03:57:00;;;;;;;43.45;23.90;;;;;;;;;;6218694;23;20036;-93
2023/03/18 03:59:30;;;;;;;50.72;25.45;;;;;;;;;;6194639;22;20087;-94
2023/03/18 04:01:56;;;;;;;47.65;23.75;;;;;;;;;;6218539;23;20717;-93
2023/03/18 04:04:22;;;;;;;48.35;25.15;;;;;;;;;;6192563;23;20008;-92
2023/03/18 04:06:49;;;;;;;44.78;25.08;;;;;;;;;;6193305;23;20099;-92
2023/03/18 04:09:16;;;;;;;54.67;25.40;;;;;;;;;;6193908;23;20012;-93
2023/03/18 04:11:43;;;;;;;47.75;25.75;;;;;;;;;;6219451;23;20008;-94
2023/03/18 04:14:10;;;;;;;49.33;25.08;;;;;;;;;;6220147;23;20061;-93
2023/03/18 04:16:37;;;;;;;47.80;24.25;;;;;;;;;;6222326;23;20012;-93
2023/03/18 04:19:05;;;;;;;47.75;25.02;;;;;;;;;;6196834;23;20018;-95
2023/03/18 04:21:31;;;;;;;45.28;23.75;;;;;;;;;;6197598;23;20012;-94
2023/03/18 04:23:57;;;;;;;54.28;26.02;;;;;;;;;;6194901;23;20469;-93
2023/03/18 04:26:30;;;;;;;53.78;25.27;;;;;;;;;;6220975;22;20012;-93
2023/03/18 04:29:03;;;;;;;49.13;24.23;;;;;;;;;;6218552;23;20019;-93
2023/03/18 04:31:30;;;;;;;49.03;24.50;;;;;;;;;;6193250;23;20009;-93
2023/03/18 04:33:59;;;;;;;51.75;25.02;;;;;;;;;;6215851;23;20008;-93
2023/03/18 04:36:25;;;;;;;46.72;22.42;;;;;;;;;;6194757;23;20008;-94
2023/03/18 04:38:51;;;;;;;46.17;22.80;;;;;;;;;;6195566;23;20027;-94
2023/03/18 04:41:19;;;;;;;46.90;23.35;;;;;;;;;;6194735;23;20012;-93
2023/03/18 04:43:45;;;;;;;45.28;22.33;;;;;;;;;;6192037;23;20040;-92
2023/03/18 04:46:13;;;;;;;46.60;23.67;;;;;;;;;;6194771;23;20066;-93
2023/03/18 04:48:40;;;;;;;51.42;23.98;;;;;;;;;;6194123;23;20115;-95
2023/03/18 04:51:08;;;;;;;47.58;23.60;;;;;;;;;;6195759;23;20095;-93
2023/03/18 04:53:34;;;;;;;44.08;21.85;;;;;;;;;;6194809;23;20036;-94
2023/03/18 04:56:00;;;;;;;44.50;22.83;;;;;;;;;;6220420;23;20012;-93
2023/03/18 04:58:26;;;;;;;44.10;23.20;;;;;;;;;;6220823;23;20015;-93
2023/03/18 05:00:56;;;;;;;44.80;23.60;;;;;;;;;;6193541;23;20114;-92
2023/03/18 05:03:39;;;;;;;;;;;;;;;;;;6221702;23;20022;-94
2023/03/18 05:06:05;;;;;;;45.70;21.15;;;;;;;;;;6220875;23;19919;-93
2023/03/18 05:08:32;;;;;;;40.92;20.10;;;;;;;;;;6195536;23;20016;-95
2023/03/18 05:10:58;;;;;;;41.35;20.83;;;;;;;;;;6195722;23;20338;-93
2023/03/18 05:13:24;;;;;;;46.65;20.90;;;;;;;;;;6195985;23;20142;-94
2023/03/18 05:15:50;;;;;;;38.45;19.13;;;;;;;;;;6193896;23;20339;-92
2023/03/18 05:18:16;;;;;;;36.28;19.70;;;;;;;;;;6220934;23;20004;-95
2023/03/18 05:20:43;;;;;;;45.22;21.67;;;;;;;;;;6223024;23;20000;-94
2023/03/18 05:23:09;;;;;;;42.97;18.58;;;;;;;;;;6195357;23;20432;-94
2023/03/18 05:25:35;;;;;;;36.35;19.52;;;;;;;;;;6245971;23;20000;-95
2023/03/18 05:28:01;;;;;;;41.55;18.60;;;;;;;;;;6221988;22;20016;-94
2023/03/18 05:30:27;;;;;;;35.22;18.30;;;;;;;;;;6221625;23;20891;-95
2023/03/18 05:32:54;;;;;;;36.35;18.83;;;;;;;;;;6202459;23;20026;-92
2023/03/18 05:35:20;;;;;;;38.40;18.30;;;;;;;;;;6229043;23;20024;-92
2023/03/18 05:37:47;;;;;;;38.80;18.88;;;;;;;;;;6221302;23;20038;-92
2023/03/18 05:40:13;;;;;;;41.95;19.50;;;;;;;;;;6249850;23;20011;-93
2023/03/18 05:42:39;;;;;;;43.67;19.17;;;;;;;;;;6220663;23;20444;-93
2023/03/18 05:45:06;;;;;;;36.85;20.38;;;;;;;;;;6198519;23;20004;-93
2023/03/18 05:47:32;;;;;;;38.13;19.48;;;;;;;;;;6223300;23;20004;-93
2023/03/18 05:49:58;;;;;;;43.35;18.83;;;;;;;;;;6221960;23;20042;-94
2023/03/18 05:52:25;;;;;;;38.40;19.65;;;;;;;;;;6196997;23;20543;-93
2023/03/18 05:54:51;;;;;;;34.15;16.85;;;;;;;;;;6222311;23;20012;-93
2023/03/18 05:57:17;;;;;;;38.80;19.35;;;;;;;;;;6197898;23;20012;-93
2023/03/18 05:59:44;;;;;;;39.83;19.75;;;;;;;;;;6196156;23;20031;-95
2023/03/18 06:02:10;;;;;;;38.33;18.65;;;;;;;;;;6197492;23;20012;-92
2023/03/18 06:04:37;;;;;;;42.10;19.42;;;;;;;;;;6195790;23;20012;-94
2023/03/18 06:07:04;;;;;;;42.53;20.60;;;;;;;;;;6195952;23;20356;-92
2023/03/18 06:09:33;;;;;;;39.83;17.73;;;;;;;;;;6195807;23;20047;-92
2023/03/18 06:11:59;;;;;;;42.35;19.60;;;;;;;;;;6197428;23;20090;-91
2023/03/18 06:14:38;;;;;;;49.42;20.05;;;;;;;;;;6219997;23;20150;-93
2023/03/18 06:17:04;;;;;;;46.35;20.30;;;;;;;;;;6196107;23;20047;-92
2023/03/18 06:19:31;;;;;;;44.95;20.95;;;;;;;;;;6195777;23;20675;-93
2023/03/18 06:21:57;;;;;;;53.80;21.75;;;;;;;;;;6222223;23;20312;-94
2023/03/18 06:24:24;;;;;;;46.15;20.30;;;;;;;;;;6223716;23;20004;-93
2023/03/18 06:26:50;;;;;;;45.65;21.55;;;;;;;;;;6197925;22;20032;-92
2023/03/18 06:29:17;;;;;;;54.10;23.30;;;;;;;;;;6195216;23;20016;-92
2023/03/18 06:31:43;;;;;;;46.47;21.13;;;;;;;;;;6195611;23;20012;-94
2023/03/18 06:34:09;;;;;;;50.33;21.65;;;;;;;;;;6219892;23;20008;-92
2023/03/18 06:36:36;;;;;;;49.75;23.45;;;;;;;;;;6195182;23;20016;-94
2023/03/18 06:39:03;;;;;;;50.97;23.65;;;;;;;;;;6196661;23;20091;-92
2023/03/18 06:41:39;;;;;;;55.65;22.63;;;;;;;;;;6218485;23;20096;-93
2023/03/18 06:44:05;;;;;;;55.97;23.35;;;;;;;;;;6216072;23;20028;-93
2023/03/18 06:46:33;;;;;;;49.22;22.17;;;;;;;;;;6194424;23;20477;-92
2023/03/18 06:49:02;;;;;;;53.75;22.45;;;;;;;;;;6218590;23;20058;-93
2023/03/18 06:51:29;;;;;;;51.60;24.17;;;;;;;;;;6218359;23;20062;-92
2023/03/18 06:53:55;;;;;;;52.97;23.20;;;;;;;;;;6193891;23;20012;-93
2023/03/18 06:56:28;;;;;;;55.65;25.48;;;;;;;;;;6193465;23;20393;-92
2023/03/18 06:58:54;;;;;;;61.70;25.75;;;;;;;;;;6215693;23;20004;-91
2023/03/18 07:01:20;;;;;;;61.60;25.60;;;;;;;;;;6187623;23;20008;-89
2023/03/18 07:03:48;;;;;;;55.50;25.90;;;;;;;;;;6213536;23;20079;-89
2023/03/18 07:06:14;;;;;;;45.88;22.42;;;;;;;;;;6187770;23;20008;-90
2023/03/18 07:08:40;;;;;;;55.05;23.23;;;;;;;;;;6189107;23;20012;-90
2023/03/18 07:11:06;;;;;;;49.60;22.63;;;;;;;;;;6215548;23;20008;-91
2023/03/18 07:13:33;;;;;;;45.38;20.90;;;;;;;;;;6213825;23;20346;-90
2023/03/18 07:16:11;;;;;;;39.47;20.52;;;;;;;;;;6212747;23;20111;-91
2023/03/18 07:18:37;;;;;;;46.40;23.67;;;;;;;;;;6187348;23;20434;-91
2023/03/18 07:21:08;;;;;;;44.08;21.98;;;;;;;;;;6188342;23;20102;-89
2023/03/18 07:23:34;;;;;;;43.50;20.83;;;;;;;;;;6190794;23;20008;-91
2023/03/18 07:26:00;;;;;;;38.35;17.90;;;;;;;;;;6188798;23;20366;-90
2023/03/18 07:28:33;;;;;;;36.00;17.83;;;;;;;;;;6190463;22;20023;-90
2023/03/18 07:31:06;;;;;;;32.65;17.02;;;;;;;;;;6213575;23;20004;-94
2023/03/18 07:33:33;;;;;;;37.30;18.73;;;;;;;;;;6194008;23;20540;-95
2023/03/18 07:35:59;;;;;;;44.13;19.00;;;;;;;;;;6192966;23;20012;-94
2023/03/18 07:38:25;;;;;;;38.17;18.95;;;;;;;;;;6192553;23;20012;-94
2023/03/18 07:40:51;;;;;;;34.85;18.95;;;;;;;;;;6190944;23;20102;-92
2023/03/18 07:43:18;;;;;;;40.45;17.65;;;;;;;;;;6192039;23;20551;-93
2023/03/18 07:45:47;;;;;;;41.22;20.00;;;;;;;;;;6190730;23;20011;-94
2023/03/18 07:48:14;;;;;;;35.92;17.67;;;;;;;;;;6192320;23;20019;-93
2023/03/18 07:50:40;;;;;;;40.55;21.15;;;;;;;;;;6190449;23;20008;-93
2023/03/18 07:53:06;;;;;;;46.53;20.27;;;;;;;;;;6216465;23;20012;-93
2023/03/18 07:55:33;;;;;;;47.67;21.20;;;;;;;;;;6189287;23;20480;-93
2023/03/18 07:57:59;;;;;;;34.65;19.70;;;;;;;;;;6215308;23;20329;-92
2023/03/18 08:00:26;;;;;;;40.78;20.77;;;;;;;;;;6189982;23;20233;-93
2023/03/18 08:02:52;;;;;;;41.70;20.25;;;;;;;;;;6216002;23;20678;-93
2023/03/18 08:05:20;;;;;;;39.10;20.15;;;;;;;;;;6215490;23;20488;-92
2023/03/18 08:07:47;;;;;;;42.45;21.05;;;;;;;;;;6216015;23;20020;-94
2023/03/18 08:10:16;;;;;;;39.22;18.75;;;;;;;;;;6217535;23;20032;-94
2023/03/18 08:12:43;;;;;;;43.03;20.15;;;;;;;;;;6219709;23;20011;-95
2023/03/18 08:15:10;;;;;;;35.75;19.58;;;;;;;;;;6218700;23;20012;-93
2023/03/18 08:17:39;;;;;;;43.70;20.35;;;;;;;;;;6193196;23;20008;-94
2023/03/18 08:20:06;;;;;;;52.40;23.88;;;;;;;;;;6222831;23;20008;-93
2023/03/18 08:22:32;;;;;;;50.85;23.55;;;;;;;;;;6196977;23;20038;-93
2023/03/18 08:25:00;;;;;;;47.40;22.55;;;;;;;;;;6199062;23;20008;-94
2023/03/18 08:27:26;;;;;;;40.63;21.05;;;;;;;;;;6197846;22;20012;-92
2023/03/18 08:29:52;;;;;;;38.55;19.67;;;;;;;;;;6194973;23;20023;-92
2023/03/18 08:32:19;;;;;;;40.53;18.95;;;;;;;;;;6199612;23;20027;-93
2023/03/18 08:34:45;;;;;;;42.20;20.77;;;;;;;;;;6199667;23;20043;-93
2023/03/18 08:37:11;;;;;;;35.03;18.92;;;;;;;;;;6198948;23;20022;-93
2023/03/18 08:39:38;;;;;;;36.72;19.77;;;;;;;;;;6199207;23;20015;-92
2023/03/18 08:42:05;;;;;;;52.28;22.50;;;;;;;;;;6198513;23;20027;-93
2023/03/18 08:44:31;;;;;;;37.53;19.65;;;;;;;;;;6221860;23;20004;-92
2023/03/18 08:46:58;;;;;;;35.83;20.10;;;;;;;;;;6193796;23;20000;-93
2023/03/18 08:49:24;;;;;;;34.25;18.38;;;;;;;;;;6194768;23;20110;-92
2023/03/18 08:51:53;;;;;;;51.25;22.48;;;;;;;;;;6218298;23;20012;-93
2023/03/18 08:54:20;;;;;;;39.90;21.23;;;;;;;;;;6194470;23;20090;-93
2023/03/18 08:56:46;;;;;;;44.95;19.60;;;;;;;;;;6219601;23;20008;-92
2023/03/18 08:59:12;;;;;;;37.97;19.92;;;;;;;;;;6197513;23;20023;-91
2023/03/18 09:01:41;;;;;;;41.85;20.15;;;;;;;;;;6221563;23;20012;-90
2023/03/18 09:04:08;;;;;;;39.65;21.15;;;;;;;;;;6197313;23;20014;-93
2023/03/18 09:06:35;;;;;;;34.58;20.42;;;;;;;;;;6197244;23;20011;-92
2023/03/18 09:09:01;;;;;;;41.97;21.10;;;;;;;;;;6195868;23;20043;-92
2023/03/18 09:11:27;;;;;;;43.00;20.38;;;;;;;;;;6197366;23;20494;-93
2023/03/18 09:13:57;;;;;;;43.78;21.15;;;;;;;;;;6223160;23;20083;-93
2023/03/18 09:16:23;;;;;;;39.55;21.27;;;;;;;;;;6248983;23;20012;-93
2023/03/18 09:18:49;;;;;;;42.58;20.65;;;;;;;;;;6198033;23;20050;-92
2023/03/18 09:21:16;;;;;;;45.67;24.13;;;;;;;;;;6197739;23;20058;-93
2023/03/18 09:23:42;;;;;;;44.67;23.15;;;;;;;;;;6198145;23;20046;-92
2023/03/18 09:26:08;;;;;;;44.03;21.95;;;;;;;;;;6222890;23;20095;-93
2023/03/18 09:28:41;;;;;;;36.53;19.83;;;;;;;;;;6202314;22;20020;-92
2023/03/18 09:31:14;;;;;;;41.47;20.13;;;;;;;;;;6199444;23;20012;-93
2023/03/18 09:33:41;;;;;;;43.20;19.85;;;;;;;;;;6197352;23;20020;-93
2023/03/18 09:36:08;;;;;;;45.65;21.13;;;;;;;;;;6198697;23;20012;-93
2023/03/18 09:38:34;;;;;;;35.90;20.95;;;;;;;;;;6199409;23;20008;-94
2023/03/18 09:41:10;;;;;;;38.22;18.45;;;;;;;;;;6198570;23;20012;-93
2023/03/18 09:43:43;;;;;;;32.35;18.70;;;;;;;;;;6222787;23;20012;-94
2023/03/18 09:46:21;;;;;;;33.28;18.52;;;;;;;;;;6225137;23;20020;-95
2023/03/18 09:48:57;;;;;;;37.70;20.63;;;;;;;;;;6224753;23;20012;-94
2023/03/18 09:51:33;;;;;;;35.03;19.42;;;;;;;;;;6225993;23;20004;-93
2023/03/18 09:54:07;;;;;;;35.65;19.42;;;;;;;;;;6225478;23;20381;-93
2023/03/18 09:56:35;;;;;;;35.75;19.48;;;;;;;;;;6225364;23;20001;-92
2023/03/18 09:59:03;;;;;;;33.78;18.67;;;;;;;;;;6225343;23;20309;-93
2023/03/18 10:01:33;;;;;;;33.95;18.10;;;;;;;;;;6229901;23;20063;-93
2023/03/18 10:04:18;;;;;;;32.00;18.45;;;;;;;;;;6207676;23;20016;-93
2023/03/18 10:06:44;;;;;;;35.92;17.70;;;;;;;;;;6227663;23;20028;-93
2023/03/18 10:09:35;;;;;;;31.60;18.90;;;;;;;;;;6225553;23;20005;-94
2023/03/18 10:12:21;;;;;;;42.83;20.58;;;;;;;;;;6231632;23;20095;-94
2023/03/18 10:14:47;;;;;;;33.35;18.77;;;;;;;;;;6207050;23;20498;-94
2023/03/18 10:17:13;;;;;;;27.42;17.63;;;;;;;;;;6237751;23;20000;-93
2023/03/18 10:19:49;;;;;;;27.98;17.83;;;;;;;;;;6264583;22;20008;-93
2023/03/18 10:25:39;;;;;;;27.45;15.98;;;;;;;;;;6218232;23;20326;-93
2023/03/18 10:28:35;;;;;;;32.55;16.13;;;;;;;;;;6229242;22;20015;-93
2023/03/18 10:31:19;;;;;;;27.98;15.93;;;;;;;;;;6145950;23;20476;-94
2023/03/18 10:40:31;;;;;;;29.30;15.82;;;;;;;;;;6168461;23;20006;-94
2023/03/18 10:43:23;;;;;;;33.35;15.90;;;;;;;;;;6162478;23;20100;-93
2023/03/18 10:46:14;;;;;;;24.77;16.23;;;;;;;;;;6170729;23;20020;-93
2023/03/18 10:49:03;;;;;;;29.42;16.23;;;;;;;;;;6202017;23;20064;-93
2023/03/18 10:51:48;;;;;;;31.63;15.50;;;;;;;;;;6228827;23;20004;-93
2023/03/18 10:54:15;;;;;;;31.13;15.82;;;;;;;;;;6223689;23;20008;-94
2023/03/18 10:56:42;;;;;;;29.38;17.17;;;;;;;;;;6227519;23;20019;-92
2023/03/18 10:59:14;;;;;;;27.67;16.92;;;;;;;;;;6198421;23;20319;-92
2023/03/18 11:01:42;;;;;;;26.80;17.45;;;;;;;;;;6222955;23;20061;-92
2023/03/18 11:04:18;;;;;;;31.48;18.00;;;;;;;;;;6231454;23;20011;-92
2023/03/18 11:07:06;;;;;;;29.60;15.75;;;;;;;;;;6232374;23;20004;-91
2023/03/18 11:09:51;;;;;;;28.50;15.20;;;;;;;;;;6223193;23;20000;-90
2023/03/18 11:15:19;;;;;;;29.67;14.07;;;;;;;;;;6220892;23;20070;-90
2023/03/18 11:17:51;;;;;;;22.00;12.23;;;;;;;;;;6224485;23;20019;-92
2023/03/18 11:20:49;;;;;;;25.27;15.45;;;;;;;;;;6226921;23;20012;-92
2023/03/18 11:26:25;;;;;;;17.02;9.82;;;;;;;;;;6255440;23;20007;-92
2023/03/18 11:29:04;;;;;;;21.75;13.23;;;;;;;;;;6203185;23;20008;-92
2023/03/18 11:32:01;;;;;;;19.63;12.65;;;;;;;;;;6233141;22;20027;-91
2023/03/18 11:34:30;;;;;;;22.25;13.05;;;;;;;;;;6225541;23;20043;-91
2023/03/18 11:37:07;;;;;;;23.13;10.23;;;;;;;;;;6219159;23;20492;-91
2023/03/18 11:39:41;;;;;;;24.58;13.80;;;;;;;;;;6218482;23;20008;-91
2023/03/18 11:42:21;;;;;;;20.23;12.15;;;;;;;;;;6219727;23;20019;-91
2023/03/18 11:44:49;;;;;;;22.48;13.13;;;;;;;;;;6195205;23;20006;-93
2023/03/18 11:47:23;;;;;;;23.33;14.02;;;;;;;;;;6198410;23;20012;-92
2023/03/18 11:50:11;;;;;;;23.90;13.38;;;;;;;;;;6245873;23;20071;-92
2023/03/18 11:52:56;;;;;;;24.90;14.35;;;;;;;;;;6221159;23;20016;-92
2023/03/18 11:55:40;;;;;;;30.10;15.27;;;;;;;;;;6219212;23;20008;-92
2023/03/18 11:58:07;;;;;;;33.53;15.25;;;;;;;;;;6218756;23;20065;-92
2023/03/18 12:03:47;;;;;;;27.60;15.23;;;;;;;;;;6121281;23;20021;-91
2023/03/18 12:06:15;;;;;;;25.23;15.60;;;;;;;;;;6204006;23;20082;-90
2023/03/18 12:08:50;;;;;;;29.25;15.82;;;;;;;;;;6219753;23;20008;-91
2023/03/18 12:11:31;;;;;;;31.48;16.60;;;;;;;;;;6218930;23;20008;-91
2023/03/18 12:14:27;;;;;;;21.08;13.23;;;;;;;;;;6216451;23;20012;-91
2023/03/18 12:17:55;;;;;;;23.73;12.03;;;;;;;;;;6212141;23;20161;-92
2023/03/18 12:26:30;;;;;;;16.75;10.45;;;;;;;;;;6088861;23;20002;-91
2023/03/18 12:29:03;;;;;;;17.02;10.10;;;;;;;;;;6207878;23;20424;-91
2023/03/18 12:31:47;;;;;;;17.92;10.02;;;;;;;;;;6218705;22;20072;-91
2023/03/18 12:34:43;;;;;;;18.77;11.43;;;;;;;;;;6220312;23;20088;-92
2023/03/18 12:37:33;;;;;;;23.08;12.10;;;;;;;;;;6128967;23;20464;-92
2023/03/18 12:40:15;;;;;;;24.27;11.70;;;;;;;;;;6124719;23;20018;-92
2023/03/18 12:42:53;;;;;;;23.90;12.30;;;;;;;;;;6253394;23;20012;-93
2023/03/18 12:45:21;;;;;;;23.80;12.05;;;;;;;;;;6230555;23;20064;-89
2023/03/18 12:47:49;;;;;;;21.58;11.68;;;;;;;;;;6222544;23;20027;-89
2023/03/18 12:50:31;;;;;;;17.92;10.85;;;;;;;;;;6217887;23;20346;-91
2023/03/18 12:53:08;;;;;;;17.70;10.65;;;;;;;;;;6225079;23;20003;-91
2023/03/18 12:56:01;;;;;;;17.73;11.00;;;;;;;;;;6227038;23;20490;-91
2023/03/18 12:58:47;;;;;;;19.92;9.75;;;;;;;;;;6252927;23;20008;-91
2023/03/18 13:01:20;;;;;;;16.35;8.75;;;;;;;;;;6226773;23;20012;-91
2023/03/18 13:03:57;;;;;;;15.68;8.18;;;;;;;;;;6221162;23;20393;-92
2023/03/18 13:06:40;;;;;;;17.75;9.35;;;;;;;;;;6256589;23;20028;-92
2023/03/18 13:09:10;;;;;;;12.90;7.05;;;;;;;;;;6232416;23;20066;-91
2023/03/18 13:11:53;;;;;;;13.93;8.18;;;;;;;;;;6226942;23;20031;-92
2023/03/18 13:14:34;;;;;;;15.25;8.20;;;;;;;;;;6228673;23;20000;-91
2023/03/18 13:17:01;;;;;;;12.70;7.25;;;;;;;;;;6224909;23;20004;-91
2023/03/18 13:19:28;;;;;;;14.65;8.15;;;;;;;;;;6222101;23;20058;-91
2023/03/18 13:22:06;;;;;;;12.48;7.18;;;;;;;;;;6195558;23;20012;-91
2023/03/18 13:24:36;;;;;;;14.05;7.28;;;;;;;;;;6223258;23;20008;-92
2023/03/18 13:27:05;;;;;;;16.02;7.15;;;;;;;;;;6224605;23;20064;-91
2023/03/18 13:29:40;;;;;;;7.75;5.63;;;;;;;;;;6223438;23;20005;-92
2023/03/18 13:32:06;;;;;;;9.88;6.28;;;;;;;;;;6221263;22;20066;-91
2023/03/18 13:34:51;;;;;;;8.70;4.57;;;;;;;;;;6218802;23;20430;-92
2023/03/18 13:37:28;;;;;;;11.25;5.93;;;;;;;;;;6218079;23;20549;-91
2023/03/18 13:40:13;;;;;;;11.73;6.05;;;;;;;;;;6218218;23;20036;-90
2023/03/18 13:42:40;;;;;;;11.68;6.70;;;;;;;;;;6217603;23;20020;-92
2023/03/18 13:45:23;;;;;;;9.95;6.40;;;;;;;;;;6194470;23;20012;-91
2023/03/18 13:48:00;;;;;;;9.35;6.32;;;;;;;;;;6220790;23;20014;-91
2023/03/18 13:50:32;;;;;;;11.27;6.78;;;;;;;;;;6224678;23;20000;-91
2023/03/18 13:53:00;;;;;;;13.05;6.35;;;;;;;;;;6222316;23;20040;-91
2023/03/18 13:55:40;;;;;;;10.88;6.60;;;;;;;;;;6196911;23;20012;-91
2023/03/18 13:58:39;;;;;;;8.65;5.53;;;;;;;;;;6221669;23;20008;-92
2023/03/18 14:01:24;;;;;;;11.57;5.65;;;;;;;;;;6221739;23;20034;-91
2023/03/18 14:03:50;;;;;;;9.20;4.50;;;;;;;;;;6220983;23;20007;-91
2023/03/18 14:06:19;;;;;;;7.75;5.05;;;;;;;;;;6221241;23;20004;-92
2023/03/18 14:08:55;;;;;;;6.95;4.90;;;;;;;;;;6222687;23;20389;-91
2023/03/18 14:11:43;;;;;;;7.32;4.93;;;;;;;;;;6197581;23;20009;-91
2023/03/18 14:14:29;;;;;;;6.65;4.30;;;;;;;;;;6220037;23;20632;-92
2023/03/18 14:16:56;;;;;;;6.00;4.50;;;;;;;;;;6219792;23;20007;-91
2023/03/18 14:19:31;;;;;;;9.75;4.97;;;;;;;;;;6220786;23;20061;-91
2023/03/18 14:22:06;;;;;;;5.88;4.10;;;;;;;;;;6219034;23;20012;-92
2023/03/18 14:24:32;;;;;;;8.52;3.35;;;;;;;;;;6218078;23;20032;-92
2023/03/18 14:27:01;;;;;;;6.78;3.30;;;;;;;;;;6218195;23;20008;-91
2023/03/18 14:29:34;;;;;;;9.10;4.55;;;;;;;;;;6215766;23;20062;-92
2023/03/18 14:32:07;;;;;;;9.02;3.47;;;;;;;;;;6220622;22;20019;-92
2023/03/18 14:34:53;;;;;;;6.57;3.33;;;;;;;;;;6195386;23;20016;-92
2023/03/18 14:37:28;;;;;;;7.75;3.28;;;;;;;;;;6217774;23;20098;-92
2023/03/18 14:39:57;;;;;;;3.70;3.30;;;;;;;;;;6217660;23;20364;-92
2023/03/18 14:42:23;;;;;;;8.48;3.45;;;;;;;;;;6217020;23;20012;-92
2023/03/18 14:44:54;;;;;;;7.95;3.80;;;;;;;;;;6215609;23;20034;-91
2023/03/18 14:47:20;;;;;;;5.50;4.18;;;;;;;;;;6216260;23;20014;-92
2023/03/18 14:50:00;;;;;;;10.20;4.30;;;;;;;;;;6217574;23;20031;-91
2023/03/18 14:52:32;;;;;;;10.73;4.88;;;;;;;;;;6217637;23;20011;-92
2023/03/18 14:55:30;;;;;;;5.93;4.45;;;;;;;;;;6217322;23;20011;-92
2023/03/18 14:57:56;;;;;;;9.82;5.10;;;;;;;;;;6152783;23;20008;-92
2023/03/18 15:00:23;;;;;;;8.30;4.80;;;;;;;;;;6217183;23;20015;-92
2023/03/18 15:02:58;;;;;;;8.68;4.32;;;;;;;;;;6192927;23;20323;-92
2023/03/18 15:05:25;;;;;;;9.83;4.30;;;;;;;;;;6216817;23;20014;-92